createdAt,value
2024-01-27T00:01:50.524Z,3.47
2024-01-27T00:04:18.165Z,3.43
2024-01-27T00:06:45.911Z,3.39
2024-01-27T00:09:13.604Z,3.37
2024-01-27T00:11:41.410Z,3.33
2024-01-27T00:14:09.054Z,3.30
2024-01-27T00:16:36.698Z,3.26
2024-01-27T00:19:04.543Z,3.24
2024-01-27T00:21:32.325Z,3.22
2024-01-27T00:24:00.076Z,3.23
2024-01-27T00:26:28.261Z,3.25
2024-01-27T00:28:55.986Z,3.26
2024-01-27T00:31:23.758Z,3.23
2024-01-27T00:33:51.502Z,3.21
2024-01-27T00:36:19.598Z,3.22
2024-01-27T00:38:47.588Z,3.23
2024-01-27T00:41:19.062Z,3.23
2024-01-27T00:43:47.071Z,3.24
2024-01-27T00:46:14.698Z,3.27
2024-01-27T00:48:42.709Z,3.28
2024-01-27T00:51:10.689Z,3.32
2024-01-27T00:53:38.381Z,3.34
2024-01-27T00:56:06.341Z,3.31
2024-01-27T00:58:33.956Z,3.28
2024-01-27T01:01:01.613Z,3.30
2024-01-27T01:03:29.366Z,3.32
2024-01-27T01:05:57.273Z,3.32
2024-01-27T01:08:25.018Z,3.29
2024-01-27T01:10:52.647Z,3.29
2024-01-27T01:13:20.312Z,3.28
2024-01-27T01:15:47.950Z,3.28
2024-01-27T01:18:15.696Z,3.26
2024-01-27T01:20:43.520Z,3.26
2024-01-27T01:23:11.319Z,3.23
2024-01-27T01:25:38.984Z,3.24
2024-01-27T01:28:06.791Z,3.24
2024-01-27T01:30:34.474Z,3.26
2024-01-27T01:33:02.304Z,3.24
2024-01-27T01:35:30.053Z,3.22
2024-01-27T01:37:57.687Z,3.20
2024-01-27T01:40:25.358Z,3.20
2024-01-27T01:42:53.301Z,3.20
2024-01-27T01:45:21.031Z,3.18
2024-01-27T01:47:49.406Z,3.14
2024-01-27T01:50:17.301Z,3.15
2024-01-27T01:52:45.605Z,3.14
2024-01-27T01:55:13.223Z,3.14
2024-01-27T01:57:41.220Z,3.14
2024-01-27T02:00:09.287Z,3.14
2024-01-27T02:02:36.999Z,3.13
2024-01-27T02:05:05.055Z,3.16
2024-01-27T02:07:32.716Z,3.17
2024-01-27T02:10:00.528Z,3.19
2024-01-27T02:12:28.294Z,3.18
2024-01-27T02:14:56.043Z,3.18
2024-01-27T02:17:23.745Z,3.18
2024-01-27T02:19:51.477Z,3.17
2024-01-27T02:22:19.193Z,3.16
2024-01-27T02:24:46.816Z,3.15
2024-01-27T02:27:14.677Z,3.13
2024-01-27T02:29:42.550Z,3.14
2024-01-27T02:32:10.204Z,3.17
2024-01-27T02:34:37.875Z,3.17
2024-01-27T02:37:05.625Z,3.18
2024-01-27T02:39:33.408Z,3.15
2024-01-27T02:42:01.137Z,3.13
2024-01-27T02:44:28.954Z,3.11
2024-01-27T02:46:56.592Z,3.07
2024-01-27T02:49:24.408Z,3.04
2024-01-27T02:51:52.045Z,3.04
2024-01-27T02:54:19.732Z,3.03
2024-01-27T02:56:47.430Z,3.02
2024-01-27T02:59:15.095Z,3.02
2024-01-27T03:01:42.858Z,3.02
2024-01-27T03:04:10.545Z,3.01
2024-01-27T03:06:38.394Z,3.00
2024-01-27T03:09:06.062Z,3.00
2024-01-27T03:11:33.736Z,2.98
2024-01-27T03:14:01.409Z,2.97
2024-01-27T03:16:29.058Z,2.99
2024-01-27T03:18:56.810Z,3.00
2024-01-27T03:21:24.650Z,2.94
2024-01-27T03:23:52.376Z,2.82
2024-01-27T03:26:20.142Z,2.73
2024-01-27T03:28:47.800Z,2.65
2024-01-27T03:31:15.532Z,2.61
2024-01-27T03:33:43.558Z,2.57
2024-01-27T03:36:12.103Z,2.54
2024-01-27T03:38:41.668Z,2.55
2024-01-27T03:41:09.327Z,2.58
2024-01-27T03:43:37.670Z,2.56
2024-01-27T03:46:05.430Z,2.52
2024-01-27T03:48:33.212Z,2.47
2024-01-27T03:51:00.989Z,2.42
2024-01-27T03:53:28.695Z,2.40
2024-01-27T03:55:57.147Z,2.39
2024-01-27T03:58:25.012Z,2.38
2024-01-27T04:00:52.935Z,2.38
2024-01-27T04:03:20.903Z,2.36
2024-01-27T04:05:48.696Z,2.38
2024-01-27T04:08:16.684Z,2.41
2024-01-27T04:10:44.331Z,2.42
2024-01-27T04:13:12.056Z,2.42
2024-01-27T04:15:40.196Z,2.44
2024-01-27T04:18:10.136Z,2.47
2024-01-27T04:20:38.327Z,2.50
2024-01-27T04:23:05.977Z,2.52
2024-01-27T04:25:33.626Z,2.52
2024-01-27T04:28:01.243Z,2.54
2024-01-27T04:30:28.945Z,2.55
2024-01-27T04:32:56.787Z,2.56
2024-01-27T04:35:24.487Z,2.57
2024-01-27T04:37:52.120Z,2.59
2024-01-27T04:40:19.849Z,2.55
2024-01-27T04:42:47.507Z,2.48
2024-01-27T04:45:16.371Z,2.38
2024-01-27T04:47:44.250Z,2.25
2024-01-27T04:50:11.906Z,2.13
2024-01-27T04:52:39.530Z,2.05
2024-01-27T04:55:07.566Z,1.99
2024-01-27T04:57:35.282Z,1.95
2024-01-27T05:00:03.711Z,1.98
2024-01-27T05:02:31.432Z,2.02
2024-01-27T05:04:59.100Z,2.05
2024-01-27T05:07:26.880Z,2.07
2024-01-27T05:09:54.553Z,2.10
2024-01-27T05:12:22.284Z,2.14
2024-01-27T05:14:50.026Z,2.19
2024-01-27T05:17:17.711Z,2.26
2024-01-27T05:19:45.668Z,2.32
2024-01-27T05:22:13.492Z,2.36
2024-01-27T05:24:41.121Z,2.40
2024-01-27T05:27:08.854Z,2.41
2024-01-27T05:29:38.547Z,2.46
2024-01-27T05:32:06.437Z,2.49
2024-01-27T05:34:34.236Z,2.50
2024-01-27T05:37:01.944Z,2.55
2024-01-27T05:39:29.668Z,2.59
2024-01-27T05:41:57.718Z,2.61
2024-01-27T05:44:25.368Z,2.59
2024-01-27T05:46:53.043Z,2.58
2024-01-27T05:49:20.754Z,2.61
2024-01-27T05:51:48.457Z,2.60
2024-01-27T05:54:16.108Z,2.57
2024-01-27T05:56:44.019Z,2.56
2024-01-27T05:59:11.695Z,2.57
2024-01-27T06:01:39.412Z,2.57
2024-01-27T06:04:07.198Z,2.58
2024-01-27T06:06:34.981Z,2.58
2024-01-27T06:09:02.845Z,2.58
2024-01-27T06:11:30.905Z,2.57
2024-01-27T06:13:58.580Z,2.60
2024-01-27T06:16:26.208Z,2.59
2024-01-27T06:18:53.897Z,2.59
2024-01-27T06:21:22.126Z,2.57
2024-01-27T06:23:49.880Z,2.55
2024-01-27T06:26:17.552Z,2.55
2024-01-27T06:28:45.196Z,2.55
2024-01-27T06:31:12.918Z,2.55
2024-01-27T06:33:40.745Z,2.56
2024-01-27T06:36:08.613Z,2.56
2024-01-27T06:38:38.596Z,2.53
2024-01-27T06:41:06.245Z,2.55
2024-01-27T06:43:33.886Z,2.57
2024-01-27T06:46:01.553Z,2.60
2024-01-27T06:48:29.375Z,2.60
2024-01-27T06:50:57.142Z,2.62
2024-01-27T06:53:24.808Z,2.63
2024-01-27T06:55:52.473Z,2.65
2024-01-27T06:58:20.211Z,2.66
2024-01-27T07:00:48.143Z,2.68
2024-01-27T07:03:16.170Z,2.68
2024-01-27T07:05:44.204Z,2.70
2024-01-27T07:08:11.902Z,2.72
2024-01-27T07:10:39.572Z,2.71
2024-01-27T07:13:07.215Z,2.71
2024-01-27T07:15:34.928Z,2.73
2024-01-27T07:18:02.793Z,2.74
2024-01-27T07:20:30.488Z,2.76
2024-01-27T07:22:58.104Z,2.74
2024-01-27T07:25:25.767Z,2.78
2024-01-27T07:27:53.479Z,2.81
2024-01-27T07:30:21.139Z,2.86
2024-01-27T07:32:48.837Z,2.91
2024-01-27T07:35:16.631Z,2.95
2024-01-27T07:37:44.261Z,2.99
2024-01-27T07:40:12.557Z,3.01
2024-01-27T07:42:40.292Z,3.00
2024-01-27T07:45:08.113Z,2.99
2024-01-27T07:47:35.896Z,3.00
2024-01-27T07:50:03.731Z,3.00
2024-01-27T07:52:31.392Z,3.02
2024-01-27T07:54:59.038Z,3.01
2024-01-27T07:57:26.739Z,3.02
2024-01-27T07:59:54.464Z,3.03
2024-01-27T08:02:22.131Z,3.06
2024-01-27T08:04:49.794Z,3.09
2024-01-27T08:07:17.493Z,3.11
2024-01-27T08:09:45.210Z,3.09
2024-01-27T08:12:12.931Z,3.07
2024-01-27T08:14:40.618Z,3.02
2024-01-27T08:17:08.258Z,3.02
2024-01-27T08:19:36.014Z,2.99
2024-01-27T08:22:03.824Z,2.97
2024-01-27T08:24:31.536Z,2.94
2024-01-27T08:26:59.982Z,2.92
2024-01-27T08:29:27.883Z,2.91
2024-01-27T08:31:55.659Z,2.92
2024-01-27T08:34:23.512Z,2.92
2024-01-27T08:36:51.289Z,2.95
2024-01-27T08:39:19.100Z,3.02
2024-01-27T08:41:46.763Z,3.04
2024-01-27T08:44:14.464Z,3.04
2024-01-27T08:46:42.303Z,3.00
2024-01-27T08:49:10.156Z,2.90
2024-01-27T08:51:37.979Z,2.79
2024-01-27T08:54:05.936Z,2.68
2024-01-27T08:56:33.583Z,2.57
2024-01-27T08:59:01.231Z,2.45
2024-01-27T09:01:28.907Z,2.30
2024-01-27T09:03:56.609Z,2.18
2024-01-27T09:06:25.202Z,2.10
2024-01-27T09:08:54.382Z,2.05
2024-01-27T09:11:22.232Z,1.96
2024-01-27T09:13:50.259Z,1.88
2024-01-27T09:16:17.908Z,1.83
2024-01-27T09:18:45.733Z,1.82
2024-01-27T09:21:13.496Z,1.82
2024-01-27T09:23:41.182Z,1.77
2024-01-27T09:26:08.860Z,1.73
2024-01-27T09:28:36.536Z,1.72
2024-01-27T09:31:04.680Z,1.75
2024-01-27T09:33:32.572Z,1.76
2024-01-27T09:36:00.325Z,1.75
2024-01-27T09:38:27.984Z,1.72
2024-01-27T09:40:55.819Z,1.64
2024-01-27T09:43:26.244Z,1.60
2024-01-27T09:45:54.787Z,1.61
2024-01-27T09:48:23.661Z,1.59
2024-01-27T09:50:53.571Z,1.53
2024-01-27T09:53:21.269Z,1.49
2024-01-27T09:55:49.157Z,1.49
2024-01-27T09:58:17.039Z,1.44
2024-01-27T10:00:46.310Z,1.40
2024-01-27T10:03:14.393Z,1.39
2024-01-27T10:05:43.882Z,1.39
2024-01-27T10:08:11.676Z,1.38
2024-01-27T10:10:39.453Z,1.40
2024-01-27T10:13:07.837Z,1.43
2024-01-27T10:15:35.610Z,1.48
2024-01-27T10:18:07.544Z,1.52
2024-01-27T10:20:35.732Z,1.55
2024-01-27T10:23:13.524Z,1.58
2024-01-27T10:25:42.139Z,1.63
2024-01-27T10:28:10.285Z,1.68
2024-01-27T10:30:38.603Z,1.72
2024-01-27T10:33:09.222Z,1.71
2024-01-27T10:35:37.041Z,1.71
2024-01-27T10:38:04.915Z,1.76
2024-01-27T10:40:32.615Z,1.80
2024-01-27T10:43:03.069Z,1.83
2024-01-27T10:45:34.931Z,1.86
2024-01-27T10:48:04.077Z,1.89
2024-01-27T10:50:41.722Z,1.89
2024-01-27T10:53:28.857Z,1.91
2024-01-27T10:55:59.396Z,1.94
2024-01-27T10:58:27.369Z,1.97
2024-01-27T11:00:57.579Z,1.98
2024-01-27T11:03:26.867Z,2.00
2024-01-27T11:05:56.032Z,2.00
2024-01-27T11:08:25.590Z,2.04
2024-01-27T11:10:53.397Z,2.09
2024-01-27T11:13:21.399Z,2.12
2024-01-27T11:15:55.745Z,2.13
2024-01-27T11:18:23.659Z,2.12
2024-01-27T11:21:00.020Z,2.11
2024-01-27T11:23:34.992Z,2.10
2024-01-27T11:26:10.224Z,2.10
2024-01-27T11:28:38.609Z,2.10
2024-01-27T11:31:07.536Z,2.09
2024-01-27T11:33:41.946Z,2.13
2024-01-27T11:36:18.697Z,2.10
2024-01-27T11:38:46.340Z,2.07
2024-01-27T11:41:13.985Z,2.00
2024-01-27T11:43:41.759Z,1.94
2024-01-27T11:46:10.282Z,1.91
2024-01-27T11:48:43.377Z,1.92
2024-01-27T11:51:14.102Z,1.92
2024-01-27T11:53:42.013Z,1.90
2024-01-27T11:56:09.777Z,1.83
2024-01-27T11:58:37.473Z,1.80
2024-01-27T12:01:05.219Z,1.77
2024-01-27T12:03:33.568Z,1.82
2024-01-27T12:06:01.414Z,1.99
2024-01-27T12:08:29.155Z,2.12
2024-01-27T12:10:56.892Z,2.14
2024-01-27T12:13:24.667Z,2.16
2024-01-27T12:15:52.378Z,2.12
2024-01-27T12:18:23.360Z,2.07
2024-01-27T12:20:56.627Z,2.05
2024-01-27T12:23:24.663Z,2.05
2024-01-27T12:25:55.839Z,2.03
2024-01-27T12:28:24.660Z,1.98
2024-01-27T12:30:54.078Z,1.99
2024-01-27T12:33:21.884Z,1.98
2024-01-27T12:35:50.486Z,1.98
2024-01-27T12:38:21.445Z,2.01
2024-01-27T12:40:49.096Z,2.04
2024-01-27T12:43:16.886Z,2.04
2024-01-27T12:45:44.607Z,2.09
2024-01-27T12:48:12.712Z,2.11
2024-01-27T12:50:40.505Z,2.15
2024-01-27T12:53:08.210Z,2.18
2024-01-27T12:55:35.864Z,2.18
2024-01-27T12:58:03.681Z,2.13
2024-01-27T13:00:31.806Z,2.09
2024-01-27T13:02:59.502Z,2.02
2024-01-27T13:05:27.579Z,1.99
2024-01-27T13:07:59.851Z,1.94
2024-01-27T13:10:27.548Z,1.94
2024-01-27T13:12:55.181Z,1.93
2024-01-27T13:15:22.843Z,1.95
2024-01-27T13:17:50.584Z,1.94
2024-01-27T13:20:20.503Z,1.94
2024-01-27T13:22:48.580Z,1.90
2024-01-27T13:25:16.367Z,1.85
2024-01-27T13:27:44.264Z,1.81
2024-01-27T13:30:12.278Z,1.74
2024-01-27T13:32:40.032Z,1.69
2024-01-27T13:35:08.526Z,1.63
2024-01-27T13:37:36.284Z,1.56
2024-01-27T13:40:05.057Z,1.53
2024-01-27T13:42:32.745Z,1.49
2024-01-27T13:45:00.782Z,1.46
2024-01-27T13:47:28.634Z,1.44
2024-01-27T13:49:56.727Z,1.44
2024-01-27T13:52:24.705Z,1.42
2024-01-27T13:54:52.579Z,1.42
2024-01-27T13:57:20.360Z,1.41
2024-01-27T13:59:48.151Z,1.39
2024-01-27T14:02:15.828Z,1.38
2024-01-27T14:04:43.655Z,1.37
2024-01-27T14:07:11.612Z,1.38
2024-01-27T14:09:39.468Z,1.38
2024-01-27T14:12:07.736Z,1.39
2024-01-27T14:14:35.426Z,1.39
2024-01-27T14:17:03.081Z,1.38
2024-01-27T14:19:30.956Z,1.38
2024-01-27T14:21:58.692Z,1.37
2024-01-27T14:24:26.455Z,1.36
2024-01-27T14:26:54.176Z,1.36
2024-01-27T14:29:21.975Z,1.35
2024-01-27T14:31:49.632Z,1.34
2024-01-27T14:34:17.815Z,1.35
2024-01-27T14:36:45.820Z,1.36
2024-01-27T14:39:13.884Z,1.37
2024-01-27T14:41:42.097Z,1.38
2024-01-27T14:44:09.822Z,1.39
2024-01-27T14:46:37.574Z,1.39
2024-01-27T14:49:05.391Z,1.41
2024-01-27T14:51:33.116Z,1.41
2024-01-27T14:54:00.784Z,1.42
